Emsdale, Canada
Current Conditions -  °F | °C
As of 10:00 PM on Saturday 25 Oct 2014 (Local Time) from CYQA Reporting Station
Overcast Overcast  
Wind Chill: 50°   Ceiling: 6000
Heat Index: 50°   Visibility: 9mi
Dew Point: 36°   Wind: 13mph
Humidity: 58%   Direction: 300°WNW
Pressure: 29.56"   Gusts: 24mph
Location:  45.53°N, 79.32°W
Report Text: CYQA 260200Z AUTO 30011G21KT 250V330 9SM OVC060 10/02 A2956 RMK SLP014
Loading
Personal Weather Stations






























Interactive Weather Map
Tropical Storm Tracking
New forecast layout! Learn more

10-Day Weather Forecast

Advertisements
Track Severe Weather on mobile